createdAt,value
2023-02-17T00:01:33.597Z,63.39
2023-02-17T00:04:19.110Z,62.83
2023-02-17T00:07:04.570Z,63.25
2023-02-17T00:09:49.947Z,63.12
2023-02-17T00:12:36.718Z,63.51
2023-02-17T00:15:22.653Z,63.49
2023-02-17T00:18:08.345Z,63.46
2023-02-17T00:20:53.871Z,63.38
2023-02-17T00:23:39.335Z,63.51
2023-02-17T00:26:25.234Z,63.62
2023-02-17T00:29:10.733Z,63.68
2023-02-17T00:31:56.664Z,63.63
2023-02-17T00:34:42.549Z,63.60
2023-02-17T00:37:28.685Z,63.72
2023-02-17T00:40:15.363Z,63.40
2023-02-17T00:43:00.875Z,63.70
2023-02-17T00:45:46.185Z,63.89
2023-02-17T00:48:33.046Z,63.93
2023-02-17T00:51:19.620Z,63.78
2023-02-17T00:54:05.898Z,64.19
2023-02-17T00:56:51.885Z,63.92
2023-02-17T00:59:37.637Z,63.83
2023-02-17T01:02:26.597Z,63.94
2023-02-17T01:05:14.216Z,64.16
2023-02-17T01:08:03.927Z,64.33
2023-02-17T01:10:51.945Z,64.38
2023-02-17T01:13:37.569Z,64.73
2023-02-17T01:16:39.589Z,64.80
2023-02-17T01:19:25.388Z,64.81
2023-02-17T01:22:12.506Z,64.90
2023-02-17T01:24:58.166Z,64.95
2023-02-17T01:27:47.288Z,64.89
2023-02-17T01:30:32.943Z,65.13
2023-02-17T01:33:18.599Z,65.11
2023-02-17T01:36:06.550Z,65.33
2023-02-17T01:38:52.429Z,65.41
2023-02-17T01:41:37.805Z,65.78
2023-02-17T01:44:25.509Z,65.93
2023-02-17T01:47:13.001Z,65.83
2023-02-17T01:49:58.860Z,65.52
2023-02-17T01:52:44.851Z,65.70
2023-02-17T01:55:33.145Z,65.63
2023-02-17T01:58:22.131Z,65.30
2023-02-17T02:01:08.325Z,65.83
2023-02-17T02:03:54.382Z,65.56
2023-02-17T02:06:43.789Z,65.81
2023-02-17T02:09:41.779Z,65.76
2023-02-17T02:12:30.584Z,65.85
2023-02-17T02:15:19.739Z,65.95
2023-02-17T02:18:23.760Z,65.98
2023-02-17T02:21:18.291Z,66.20
2023-02-17T02:24:22.651Z,66.49
2023-02-17T02:27:18.044Z,66.00
2023-02-17T02:30:21.868Z,66.45
2023-02-17T02:33:30.549Z,66.24
2023-02-17T02:36:37.220Z,66.55
2023-02-17T02:39:26.761Z,66.46
2023-02-17T02:42:16.639Z,66.58
2023-02-17T02:45:02.414Z,66.67
2023-02-17T02:47:53.740Z,66.61
2023-02-17T02:51:03.654Z,66.80
2023-02-17T02:53:55.175Z,66.89
2023-02-17T02:57:04.371Z,66.87
2023-02-17T03:00:30.866Z,66.76
2023-02-17T03:03:48.587Z,66.90
2023-02-17T03:06:40.278Z,66.91
2023-02-17T03:09:27.567Z,66.77
2023-02-17T03:12:12.943Z,66.69
2023-02-17T03:15:04.569Z,66.73
2023-02-17T03:17:50.058Z,67.16
2023-02-17T03:20:42.014Z,66.51
2023-02-17T03:23:27.584Z,66.47
2023-02-17T03:26:12.957Z,66.54
2023-02-17T03:28:58.242Z,66.75
2023-02-17T03:31:43.924Z,66.86
2023-02-17T03:34:29.227Z,66.81
2023-02-17T03:37:14.576Z,66.83
2023-02-17T03:39:59.991Z,67.01
2023-02-17T03:42:45.263Z,66.80
2023-02-17T03:45:30.677Z,67.01
2023-02-17T03:48:16.011Z,66.53
2023-02-17T03:51:20.648Z,66.80
2023-02-17T03:54:06.748Z,66.94
2023-02-17T03:56:52.050Z,66.95
2023-02-17T03:59:37.601Z,66.77
2023-02-17T04:02:23.221Z,66.60
2023-02-17T04:05:08.505Z,66.65
2023-02-17T04:07:54.063Z,66.86
2023-02-17T04:10:39.466Z,66.70
2023-02-17T04:13:25.781Z,66.70
2023-02-17T04:16:12.509Z,66.86
2023-02-17T04:18:57.748Z,66.67
2023-02-17T04:21:43.263Z,66.50
2023-02-17T04:24:28.605Z,66.69
2023-02-17T04:27:14.020Z,66.42
2023-02-17T04:29:59.484Z,66.33
2023-02-17T04:32:44.690Z,66.28
2023-02-17T04:35:30.749Z,66.51
2023-02-17T04:38:16.567Z,66.25
2023-02-17T04:41:02.378Z,66.42
2023-02-17T04:43:47.662Z,66.48
2023-02-17T04:46:33.076Z,66.60
2023-02-17T04:49:18.508Z,66.25
2023-02-17T04:52:04.432Z,66.42
2023-02-17T04:54:49.788Z,66.31
2023-02-17T04:57:35.516Z,66.19
2023-02-17T05:00:21.453Z,66.35
2023-02-17T05:03:07.314Z,66.37
2023-02-17T05:05:52.771Z,66.73
2023-02-17T05:08:38.262Z,66.44
2023-02-17T05:11:23.744Z,66.61
2023-02-17T05:14:09.164Z,66.45
2023-02-17T05:16:54.770Z,66.45
2023-02-17T05:19:40.110Z,66.36
2023-02-17T05:22:26.592Z,66.53
2023-02-17T05:25:12.307Z,66.70
2023-02-17T05:27:57.951Z,66.59
2023-02-17T05:30:43.508Z,66.39
2023-02-17T05:33:29.334Z,66.63
2023-02-17T05:36:15.247Z,66.53
2023-02-17T05:39:00.884Z,66.69
2023-02-17T05:41:46.103Z,66.66
2023-02-17T05:44:31.621Z,66.51
2023-02-17T05:47:16.979Z,66.60
2023-02-17T05:50:02.786Z,66.56
2023-02-17T05:52:48.129Z,66.55
2023-02-17T05:55:33.476Z,66.53
2023-02-17T05:58:19.139Z,66.58
2023-02-17T06:01:12.245Z,66.83
2023-02-17T06:03:57.769Z,66.54
2023-02-17T06:06:43.174Z,66.74
2023-02-17T06:09:28.617Z,66.67
2023-02-17T06:12:14.073Z,66.65
2023-02-17T06:14:59.643Z,66.59
2023-02-17T06:17:44.878Z,66.31
2023-02-17T06:20:30.634Z,66.59
2023-02-17T06:23:16.399Z,66.12
2023-02-17T06:26:02.015Z,66.46
2023-02-17T06:28:47.721Z,66.12
2023-02-17T06:31:33.837Z,66.15
2023-02-17T06:34:19.357Z,66.18
2023-02-17T06:37:04.863Z,65.83
2023-02-17T06:39:50.169Z,65.95
2023-02-17T06:42:35.834Z,66.14
2023-02-17T06:45:21.143Z,66.04
2023-02-17T06:48:06.571Z,66.13
2023-02-17T06:50:53.288Z,66.12
2023-02-17T06:53:39.745Z,65.86
2023-02-17T06:56:25.892Z,66.03
2023-02-17T06:59:11.457Z,65.90
2023-02-17T07:01:59.086Z,65.90
2023-02-17T07:04:47.850Z,65.50
2023-02-17T07:07:36.347Z,65.40
2023-02-17T07:10:24.176Z,65.58
2023-02-17T07:13:11.945Z,65.47
2023-02-17T07:16:03.126Z,65.18
2023-02-17T07:18:49.405Z,64.80
2023-02-17T07:21:36.358Z,65.04
2023-02-17T07:24:22.913Z,64.75
2023-02-17T07:27:10.862Z,63.82
2023-02-17T07:29:57.000Z,63.86
2023-02-17T07:32:42.438Z,62.68
2023-02-17T07:35:28.471Z,62.50
2023-02-17T07:38:14.129Z,62.54
2023-02-17T07:41:09.560Z,61.39
2023-02-17T07:43:56.933Z,61.33
2023-02-17T07:46:43.142Z,60.81
2023-02-17T07:49:29.284Z,60.11
2023-02-17T07:52:18.190Z,59.92
2023-02-17T07:55:04.223Z,59.49
2023-02-17T07:57:49.877Z,58.71
2023-02-17T08:00:35.437Z,59.10
2023-02-17T08:03:21.700Z,58.97
2023-02-17T08:06:12.950Z,58.22
2023-02-17T08:09:17.471Z,58.64
2023-02-17T08:12:21.368Z,58.50
2023-02-17T08:15:10.118Z,58.18
2023-02-17T08:17:55.866Z,58.04
2023-02-17T08:20:41.324Z,58.37
2023-02-17T08:23:27.336Z,58.33
2023-02-17T08:26:14.896Z,58.27
2023-02-17T08:29:01.160Z,57.69
2023-02-17T08:31:51.533Z,56.89
2023-02-17T08:34:38.238Z,56.28
2023-02-17T08:37:24.075Z,56.61
2023-02-17T08:40:10.198Z,57.03
2023-02-17T08:42:56.774Z,57.60
2023-02-17T08:45:42.971Z,57.28
2023-02-17T08:48:28.471Z,57.79
2023-02-17T08:51:23.457Z,57.16
2023-02-17T08:54:11.272Z,56.66
2023-02-17T08:56:58.610Z,55.78
2023-02-17T08:59:48.478Z,55.65
2023-02-17T09:02:35.974Z,54.85
2023-02-17T09:05:23.160Z,55.12
2023-02-17T09:08:10.978Z,55.56
2023-02-17T09:10:57.183Z,54.71
2023-02-17T09:13:46.770Z,54.93
2023-02-17T09:16:35.476Z,54.44
2023-02-17T09:19:24.871Z,53.95
2023-02-17T09:22:26.114Z,53.53
2023-02-17T09:25:16.181Z,53.69
2023-02-17T09:28:01.660Z,53.58
2023-02-17T09:30:48.445Z,53.94
2023-02-17T09:33:34.762Z,54.26
2023-02-17T09:36:23.080Z,54.26
2023-02-17T09:39:12.288Z,53.48
2023-02-17T09:41:59.016Z,53.72
2023-02-17T09:44:49.180Z,52.77
2023-02-17T09:47:58.054Z,53.23
2023-02-17T09:51:12.492Z,53.38
2023-02-17T09:54:13.698Z,53.61
2023-02-17T09:57:01.750Z,52.83
2023-02-17T09:59:55.667Z,53.30
2023-02-17T10:03:12.994Z,53.75
2023-02-17T10:06:28.584Z,53.43
2023-02-17T10:09:19.843Z,53.54
2023-02-17T10:12:10.107Z,54.20
2023-02-17T10:15:09.499Z,53.81
2023-02-17T10:18:05.680Z,53.83
2023-02-17T10:21:07.286Z,53.43
2023-02-17T10:23:52.862Z,52.24
2023-02-17T10:26:56.913Z,51.61
2023-02-17T10:30:14.404Z,52.07
2023-02-17T10:33:11.971Z,52.08
2023-02-17T10:36:19.991Z,52.93
2023-02-17T10:39:36.238Z,52.60
2023-02-17T10:42:37.918Z,52.21
2023-02-17T10:45:41.742Z,53.57
2023-02-17T10:48:35.833Z,52.56
2023-02-17T10:51:28.157Z,52.69
2023-02-17T10:54:42.416Z,52.70
2023-02-17T10:57:33.343Z,53.41
2023-02-17T11:00:19.634Z,52.95
2023-02-17T11:03:05.224Z,52.96
2023-02-17T11:05:57.039Z,52.91
2023-02-17T11:08:51.423Z,52.21
2023-02-17T11:11:37.084Z,52.88
2023-02-17T11:14:33.650Z,52.93
2023-02-17T11:17:28.170Z,53.25
2023-02-17T11:20:13.588Z,53.22
2023-02-17T11:23:16.460Z,53.64
2023-02-17T11:26:09.434Z,53.24
2023-02-17T11:28:55.308Z,54.28
2023-02-17T11:31:41.394Z,54.01
2023-02-17T11:34:30.330Z,52.71
2023-02-17T11:37:20.324Z,53.71
2023-02-17T11:40:26.444Z,53.80
2023-02-17T11:43:19.020Z,53.12
2023-02-17T11:46:13.926Z,52.97
2023-02-17T11:49:31.213Z,53.25
2023-02-17T11:52:35.960Z,53.36
2023-02-17T11:56:09.968Z,52.65
2023-02-17T11:59:43.951Z,52.60
2023-02-17T12:02:59.013Z,52.98
2023-02-17T12:06:09.079Z,52.23
2023-02-17T12:09:11.090Z,52.93
2023-02-17T12:12:15.232Z,52.23
2023-02-17T12:15:11.720Z,51.74
2023-02-17T12:18:10.147Z,51.72
2023-02-17T12:21:10.732Z,51.47
2023-02-17T12:24:07.881Z,51.17
2023-02-17T12:27:21.356Z,51.53
2023-02-17T12:30:14.653Z,51.35
2023-02-17T12:33:20.781Z,51.62
2023-02-17T12:36:13.182Z,51.63
2023-02-17T12:39:12.523Z,51.18
2023-02-17T12:42:11.561Z,51.45
2023-02-17T12:45:04.014Z,50.75
2023-02-17T12:47:55.518Z,51.19
2023-02-17T12:50:54.971Z,51.17
2023-02-17T12:53:43.505Z,50.87
2023-02-17T12:56:42.369Z,51.05
2023-02-17T12:59:34.327Z,50.89
2023-02-17T13:02:25.102Z,50.94
2023-02-17T13:05:26.470Z,50.96
2023-02-17T13:08:23.221Z,50.90
2023-02-17T13:11:13.608Z,51.27
2023-02-17T13:14:11.362Z,51.08
2023-02-17T13:16:57.309Z,50.28
2023-02-17T13:19:42.693Z,50.98
2023-02-17T13:22:28.238Z,50.82
2023-02-17T13:25:29.643Z,51.01
2023-02-17T13:28:34.373Z,51.40
2023-02-17T13:31:25.647Z,51.74
2023-02-17T13:34:11.117Z,51.58
2023-02-17T13:36:58.005Z,51.39
2023-02-17T13:39:44.041Z,51.38
2023-02-17T13:42:41.385Z,51.62
2023-02-17T13:45:29.746Z,51.11
2023-02-17T13:48:20.918Z,51.62
2023-02-17T13:51:09.949Z,51.27
2023-02-17T13:53:56.089Z,50.79
2023-02-17T13:56:42.675Z,51.27
2023-02-17T13:59:28.331Z,51.08
2023-02-17T14:02:35.371Z,50.67
2023-02-17T14:05:27.942Z,51.08
2023-02-17T14:08:27.433Z,51.18
2023-02-17T14:11:15.339Z,50.91
2023-02-17T14:14:08.207Z,50.09
2023-02-17T14:16:58.764Z,50.94
2023-02-17T14:19:49.304Z,49.85
2023-02-17T14:22:35.874Z,50.21
2023-02-17T14:25:29.541Z,49.35
2023-02-17T14:28:27.282Z,49.74
2023-02-17T14:31:20.248Z,49.68
2023-02-17T14:34:05.849Z,49.87
2023-02-17T14:36:51.380Z,49.45
2023-02-17T14:39:37.734Z,48.87
2023-02-17T14:42:23.181Z,49.80
2023-02-17T14:45:09.231Z,49.91
2023-02-17T14:47:54.682Z,50.04
2023-02-17T14:50:44.653Z,49.62
2023-02-17T14:53:36.483Z,50.36
2023-02-17T14:56:27.472Z,49.91
2023-02-17T14:59:12.892Z,50.53
2023-02-17T15:01:58.338Z,49.99
2023-02-17T15:04:44.081Z,50.06
2023-02-17T15:07:29.740Z,50.40
2023-02-17T15:10:20.723Z,50.16
2023-02-17T15:13:06.587Z,50.08
2023-02-17T15:15:52.534Z,50.30
2023-02-17T15:18:38.099Z,50.30
2023-02-17T15:21:31.105Z,50.54
2023-02-17T15:24:27.254Z,50.47
2023-02-17T15:27:17.368Z,50.55
2023-02-17T15:30:03.130Z,50.98
2023-02-17T15:32:48.990Z,51.43
2023-02-17T15:35:34.556Z,51.78
2023-02-17T15:38:20.436Z,51.05
2023-02-17T15:41:13.671Z,52.07
2023-02-17T15:44:01.330Z,52.14
2023-02-17T15:46:49.843Z,51.95
2023-02-17T15:49:35.554Z,52.17
2023-02-17T15:52:21.500Z,52.71
2023-02-17T15:55:07.642Z,55.42
2023-02-17T15:57:58.690Z,52.92
2023-02-17T16:00:50.564Z,52.92
2023-02-17T16:03:36.770Z,52.53
2023-02-17T16:06:22.518Z,52.88
2023-02-17T16:09:08.392Z,53.86
2023-02-17T16:11:55.987Z,54.01
2023-02-17T16:14:41.676Z,54.71
2023-02-17T16:17:28.193Z,55.29
2023-02-17T16:20:14.851Z,55.74
2023-02-17T16:23:01.159Z,55.82
2023-02-17T16:25:48.073Z,56.75
2023-02-17T16:28:33.924Z,57.13
2023-02-17T16:31:19.937Z,57.57
2023-02-17T16:34:05.237Z,58.67
2023-02-17T16:36:53.034Z,59.56
2023-02-17T16:39:39.994Z,60.42
2023-02-17T16:42:26.214Z,60.31
2023-02-17T16:45:25.655Z,60.66
2023-02-17T16:48:14.528Z,60.70
2023-02-17T16:51:00.394Z,60.96
2023-02-17T16:53:45.651Z,60.83
2023-02-17T16:56:37.638Z,61.34
2023-02-17T16:59:24.807Z,62.01
2023-02-17T17:02:11.588Z,62.39
2023-02-17T17:04:57.400Z,63.12
2023-02-17T17:07:42.849Z,63.03
2023-02-17T17:10:31.699Z,64.09
2023-02-17T17:13:18.044Z,63.83
2023-02-17T17:16:03.624Z,64.50
2023-02-17T17:18:49.537Z,63.88
2023-02-17T17:21:35.956Z,63.44
2023-02-17T17:24:21.905Z,63.98
2023-02-17T17:27:07.619Z,63.89
2023-02-17T17:29:52.962Z,63.16
2023-02-17T17:32:38.677Z,62.17
2023-02-17T17:35:24.777Z,62.40
2023-02-17T17:38:14.279Z,62.22
2023-02-17T17:41:13.130Z,62.14
2023-02-17T17:43:59.084Z,62.00
2023-02-17T17:46:45.008Z,61.90
2023-02-17T17:49:30.589Z,62.88
2023-02-17T17:52:15.836Z,61.98
2023-02-17T17:55:01.214Z,61.81
2023-02-17T17:57:48.515Z,61.96
2023-02-17T18:00:33.828Z,61.91
2023-02-17T18:03:19.409Z,62.14
2023-02-17T18:06:06.520Z,62.49
2023-02-17T18:08:54.836Z,62.52
2023-02-17T18:11:43.038Z,62.34
2023-02-17T18:14:29.298Z,62.64
2023-02-17T18:17:18.066Z,62.89
2023-02-17T18:20:05.213Z,62.32
2023-02-17T18:22:51.185Z,62.68
2023-02-17T18:25:36.526Z,62.09
2023-02-17T18:28:22.039Z,62.67
2023-02-17T18:31:09.914Z,62.54
2023-02-17T18:33:55.986Z,62.79
2023-02-17T18:36:41.834Z,62.91
2023-02-17T18:39:27.416Z,64.03
2023-02-17T18:42:13.057Z,64.17
2023-02-17T18:44:58.428Z,64.97
2023-02-17T18:47:44.372Z,65.42
2023-02-17T18:50:33.073Z,65.88
2023-02-17T18:53:18.921Z,67.25
2023-02-17T18:56:11.073Z,66.64
2023-02-17T18:58:57.305Z,67.51
2023-02-17T19:01:43.512Z,68.65
2023-02-17T19:04:29.717Z,68.75
2023-02-17T19:07:15.270Z,68.80
2023-02-17T19:10:01.168Z,69.36
2023-02-17T19:12:47.354Z,69.06
2023-02-17T19:15:33.061Z,69.74
2023-02-17T19:18:18.510Z,70.05
2023-02-17T19:21:03.860Z,69.92
2023-02-17T19:23:49.858Z,70.75
2023-02-17T19:26:38.446Z,71.42
2023-02-17T19:29:24.713Z,71.98
2023-02-17T19:32:17.486Z,72.36
2023-02-17T19:35:05.324Z,73.26
2023-02-17T19:37:51.259Z,72.86
2023-02-17T19:40:37.382Z,72.89
2023-02-17T19:43:22.763Z,73.61
2023-02-17T19:46:21.274Z,73.42
2023-02-17T19:49:07.800Z,73.90
2023-02-17T19:51:56.272Z,73.83
2023-02-17T19:54:43.138Z,73.85
2023-02-17T19:57:29.993Z,75.02
2023-02-17T20:00:16.900Z,74.48
2023-02-17T20:03:03.483Z,75.01
2023-02-17T20:05:48.720Z,75.76
2023-02-17T20:08:35.565Z,76.10
2023-02-17T20:11:21.392Z,75.59
2023-02-17T20:14:07.518Z,76.22
2023-02-17T20:16:53.450Z,76.06
2023-02-17T20:19:39.645Z,76.17
2023-02-17T20:22:25.745Z,76.09
2023-02-17T20:25:11.285Z,76.60
2023-02-17T20:28:02.322Z,76.95
2023-02-17T20:30:55.384Z,77.03
2023-02-17T20:33:41.275Z,76.63
2023-02-17T20:36:26.829Z,77.36
2023-02-17T20:39:12.279Z,77.20
2023-02-17T20:41:59.425Z,77.57
2023-02-17T20:44:45.928Z,77.27
2023-02-17T20:47:31.496Z,77.36
2023-02-17T20:50:19.706Z,77.76
2023-02-17T20:53:05.364Z,77.86
2023-02-17T20:55:51.466Z,78.03
2023-02-17T20:58:36.977Z,77.64
2023-02-17T21:01:22.336Z,77.82
2023-02-17T21:04:08.282Z,78.67
2023-02-17T21:06:54.110Z,78.58
2023-02-17T21:09:39.571Z,78.74
2023-02-17T21:12:31.540Z,79.18
2023-02-17T21:15:33.774Z,79.38
2023-02-17T21:18:24.464Z,79.21
2023-02-17T21:21:11.573Z,79.54
2023-02-17T21:23:58.081Z,79.35
2023-02-17T21:26:43.816Z,80.24
2023-02-17T21:29:29.648Z,80.43
2023-02-17T21:32:15.184Z,80.72
2023-02-17T21:35:01.019Z,81.40
2023-02-17T21:37:46.688Z,81.60
2023-02-17T21:40:32.175Z,82.00
2023-02-17T21:43:37.691Z,82.38
2023-02-17T21:46:24.345Z,82.84
2023-02-17T21:49:10.754Z,83.20
2023-02-17T21:51:56.287Z,82.98
2023-02-17T21:54:41.564Z,83.24
2023-02-17T21:57:26.964Z,83.80
2023-02-17T22:00:13.075Z,83.71
2023-02-17T22:02:58.438Z,84.20
2023-02-17T22:05:43.960Z,84.31
2023-02-17T22:08:29.376Z,84.51
2023-02-17T22:11:16.638Z,84.44
2023-02-17T22:14:05.236Z,85.16
2023-02-17T22:16:50.872Z,85.06
2023-02-17T22:19:36.271Z,84.99
2023-02-17T22:22:21.711Z,84.71
2023-02-17T22:25:08.403Z,84.22
2023-02-17T22:27:53.996Z,84.68
2023-02-17T22:30:39.457Z,84.68
2023-02-17T22:33:24.804Z,85.03
2023-02-17T22:36:16.071Z,85.14
2023-02-17T22:39:02.740Z,85.28
2023-02-17T22:41:48.218Z,85.71
2023-02-17T22:44:33.617Z,85.59
2023-02-17T22:47:18.903Z,85.78
2023-02-17T22:50:04.930Z,85.86
2023-02-17T22:52:50.222Z,85.42
2023-02-17T22:55:35.529Z,85.59
2023-02-17T22:58:22.340Z,86.10
2023-02-17T23:01:12.438Z,86.10
2023-02-17T23:03:58.635Z,86.94
2023-02-17T23:06:45.102Z,86.66
2023-02-17T23:09:30.553Z,86.83
2023-02-17T23:12:16.129Z,86.69
2023-02-17T23:15:01.725Z,86.53
2023-02-17T23:17:59.388Z,86.21
2023-02-17T23:20:48.482Z,86.90
2023-02-17T23:23:34.362Z,86.28
2023-02-17T23:26:19.606Z,86.24
2023-02-17T23:29:05.013Z,86.62
2023-02-17T23:31:50.533Z,86.91
2023-02-17T23:34:35.791Z,86.87
2023-02-17T23:37:21.503Z,86.64
2023-02-17T23:40:07.640Z,86.75
2023-02-17T23:42:53.160Z,86.35
2023-02-17T23:45:39.270Z,86.45
2023-02-17T23:48:24.607Z,86.64
2023-02-17T23:51:17.584Z,86.52
2023-02-17T23:54:03.368Z,86.98
2023-02-17T23:56:48.723Z,87.01
2023-02-17T23:59:34.210Z,87.06
